createdAt,value
2017-05-24T00:00:39.095Z,13.84
2017-05-24T00:01:39.084Z,13.86
2017-05-24T00:02:39.062Z,13.84
2017-05-24T00:03:39.034Z,13.84
2017-05-24T00:04:39.010Z,13.84
2017-05-24T00:05:38.988Z,13.75
2017-05-24T00:06:38.971Z,13.83
2017-05-24T00:07:38.949Z,13.83
2017-05-24T00:08:38.931Z,13.73
2017-05-24T00:09:38.610Z,13.73
2017-05-24T00:10:38.877Z,13.76
2017-05-24T00:11:38.863Z,13.73
2017-05-24T00:12:38.843Z,13.68
2017-05-24T00:13:38.828Z,13.71
2017-05-24T00:14:38.806Z,13.62
2017-05-24T00:15:38.774Z,13.66
2017-05-24T00:16:38.754Z,13.61
2017-05-24T00:17:38.793Z,13.66
2017-05-24T00:18:38.715Z,13.61
2017-05-24T00:19:38.696Z,13.57
2017-05-24T00:20:38.669Z,13.61
2017-05-24T00:21:38.647Z,13.59
2017-05-24T00:22:38.625Z,13.61
2017-05-24T00:23:38.663Z,13.57
2017-05-24T00:24:38.592Z,13.57
2017-05-24T00:25:38.565Z,13.53
2017-05-24T00:26:38.539Z,13.47
2017-05-24T00:27:38.521Z,13.51
2017-05-24T00:28:38.507Z,13.47
2017-05-24T00:29:38.490Z,13.47
2017-05-24T00:30:38.459Z,13.43
2017-05-24T00:31:38.445Z,13.44
2017-05-24T00:32:38.427Z,13.39
2017-05-24T00:33:38.400Z,13.44
2017-05-24T00:34:38.365Z,13.41
2017-05-24T00:35:38.363Z,13.38
2017-05-24T00:36:38.333Z,13.41
2017-05-24T00:37:38.317Z,13.36
2017-05-24T00:38:38.295Z,13.31
2017-05-24T00:39:38.267Z,13.16
2017-05-24T00:40:38.246Z,13.27
2017-05-24T00:41:38.230Z,13.27
2017-05-24T00:42:38.199Z,13.22
2017-05-24T00:43:38.188Z,13.27
2017-05-24T00:44:38.160Z,13.25
2017-05-24T00:45:38.146Z,13.24
2017-05-24T00:46:38.121Z,13.22
2017-05-24T00:47:38.102Z,13.24
2017-05-24T00:48:38.076Z,13.28
2017-05-24T00:49:38.058Z,13.24
2017-05-24T00:50:38.028Z,13.24
2017-05-24T00:51:38.009Z,13.28
2017-05-24T00:52:37.994Z,13.24
2017-05-24T00:53:37.969Z,13.24
2017-05-24T00:54:37.948Z,13.25
2017-05-24T00:55:37.943Z,13.25
2017-05-24T00:56:38.151Z,13.27
2017-05-24T00:57:37.892Z,13.38
2017-05-24T00:58:37.868Z,13.35
2017-05-24T00:59:37.845Z,13.36
2017-05-24T01:00:37.826Z,13.41
2017-05-24T01:01:37.811Z,13.35
2017-05-24T01:02:37.780Z,13.44
2017-05-24T01:03:37.772Z,13.44
2017-05-24T01:04:37.737Z,13.46
2017-05-24T01:05:37.710Z,13.41
2017-05-24T01:06:37.683Z,13.43
2017-05-24T01:07:37.675Z,13.36
2017-05-24T01:08:37.657Z,13.46
2017-05-24T01:09:37.623Z,13.36
2017-05-24T01:10:37.606Z,13.35
2017-05-24T01:11:37.578Z,13.36
2017-05-24T01:12:37.272Z,13.28
2017-05-24T01:13:37.542Z,13.31
2017-05-24T01:14:37.528Z,13.28
2017-05-24T01:15:37.498Z,13.27
2017-05-24T01:16:37.479Z,13.25
2017-05-24T01:17:37.457Z,13.31
2017-05-24T01:18:37.440Z,13.25
2017-05-24T01:19:37.413Z,13.24
2017-05-24T01:20:37.386Z,13.27
2017-05-24T01:21:37.371Z,13.21
2017-05-24T01:22:37.655Z,13.24
2017-05-24T01:23:37.333Z,13.17
2017-05-24T01:24:37.297Z,13.25
2017-05-24T01:25:37.538Z,13.21
2017-05-24T01:26:37.263Z,13.25
2017-05-24T01:27:37.259Z,13.17
2017-05-24T01:28:37.220Z,13.12
2017-05-24T01:29:36.903Z,13.09
2017-05-24T01:30:37.235Z,13.13
2017-05-24T01:31:37.155Z,13.07
2017-05-24T01:32:37.146Z,13.01
2017-05-24T01:33:37.129Z,13.09
2017-05-24T01:34:37.097Z,13.01
2017-05-24T01:35:36.770Z,13.06
2017-05-24T01:36:37.052Z,13.04
2017-05-24T01:37:37.025Z,13.03
2017-05-24T01:38:37.012Z,13.06
2017-05-24T01:39:36.991Z,13.03
2017-05-24T01:40:36.977Z,12.94
2017-05-24T01:41:36.940Z,13.01
2017-05-24T01:42:36.923Z,12.95
2017-05-24T01:43:36.904Z,12.88
2017-05-24T01:44:36.588Z,12.91
2017-05-24T01:45:36.854Z,12.91
2017-05-24T01:46:36.830Z,12.89
2017-05-24T01:47:36.527Z,12.89
2017-05-24T01:48:36.802Z,12.81
2017-05-24T01:49:36.771Z,12.81
2017-05-24T01:50:36.750Z,12.77
2017-05-24T01:51:36.720Z,12.77
2017-05-24T01:52:36.702Z,12.76
2017-05-24T01:53:36.687Z,12.77
2017-05-24T01:54:36.664Z,12.77
2017-05-24T01:55:36.651Z,12.76
2017-05-24T01:56:36.622Z,12.8
2017-05-24T01:57:36.600Z,12.81
2017-05-24T01:58:36.581Z,12.77
2017-05-24T01:59:36.557Z,12.8
2017-05-24T02:00:36.251Z,12.74
2017-05-24T02:01:36.510Z,12.59
2017-05-24T02:02:36.488Z,12.73
2017-05-24T02:03:36.472Z,12.76
2017-05-24T02:04:36.448Z,12.71
2017-05-24T02:05:36.429Z,12.8
2017-05-24T02:06:36.409Z,12.85
2017-05-24T02:07:36.394Z,12.81
2017-05-24T02:08:36.057Z,12.81
2017-05-24T02:09:36.040Z,12.79
2017-05-24T02:10:36.317Z,12.77
2017-05-24T02:11:36.006Z,12.85
2017-05-24T02:12:36.279Z,12.84
2017-05-24T02:13:36.256Z,12.91
2017-05-24T02:14:36.244Z,12.81
2017-05-24T02:15:36.211Z,12.87
2017-05-24T02:16:36.191Z,12.84
2017-05-24T02:17:36.177Z,12.89
2017-05-24T02:18:36.145Z,12.89
2017-05-24T02:19:36.119Z,12.87
2017-05-24T02:20:36.107Z,12.88
2017-05-24T02:21:36.080Z,12.85
2017-05-24T02:22:36.060Z,12.81
2017-05-24T02:23:36.035Z,12.87
2017-05-24T02:24:36.030Z,12.91
2017-05-24T02:25:36.006Z,12.77
2017-05-24T02:26:35.979Z,12.79
2017-05-24T02:27:35.950Z,12.8
2017-05-24T02:28:35.942Z,12.77
2017-05-24T02:29:35.908Z,12.77
2017-05-24T02:30:35.907Z,12.84
2017-05-24T02:31:35.868Z,12.74
2017-05-24T02:32:35.851Z,12.88
2017-05-24T02:33:35.821Z,12.76
2017-05-24T02:34:35.800Z,12.91
2017-05-24T02:35:35.781Z,12.88
2017-05-24T02:36:35.753Z,12.89
2017-05-24T02:37:35.735Z,12.85
2017-05-24T02:38:35.711Z,12.99
2017-05-24T02:39:35.701Z,12.87
2017-05-24T02:40:35.678Z,12.91
2017-05-24T02:41:35.651Z,13.04
2017-05-24T02:42:35.630Z,12.98
2017-05-24T02:43:35.609Z,13.03
2017-05-24T02:44:35.585Z,12.95
2017-05-24T02:45:35.560Z,12.99
2017-05-24T02:46:35.538Z,12.98
2017-05-24T02:47:35.520Z,13.07
2017-05-24T02:48:35.501Z,13.07
2017-05-24T02:49:35.480Z,13.07
2017-05-24T02:50:35.461Z,13.13
2017-05-24T02:51:35.140Z,13.07
2017-05-24T02:52:35.416Z,13.12
2017-05-24T02:53:35.391Z,13.1
2017-05-24T02:54:35.369Z,13.1
2017-05-24T02:55:35.349Z,13.1
2017-05-24T02:56:35.327Z,13.16
2017-05-24T02:57:35.303Z,13.14
2017-05-24T02:58:35.280Z,13.16
2017-05-24T02:59:35.273Z,13.17
2017-05-24T03:00:35.246Z,13.22
2017-05-24T03:01:35.217Z,13.24
2017-05-24T03:02:35.210Z,13.27
2017-05-24T03:03:35.179Z,13.25
2017-05-24T03:04:35.161Z,13.24
2017-05-24T03:05:35.142Z,13.27
2017-05-24T03:06:35.113Z,13.28
2017-05-24T03:07:35.097Z,13.32
2017-05-24T03:08:35.075Z,13.32
2017-05-24T03:09:35.052Z,13.41
2017-05-24T03:10:35.035Z,13.38
2017-05-24T03:11:35.006Z,13.43
2017-05-24T03:12:34.983Z,13.46
2017-05-24T03:13:34.963Z,13.38
2017-05-24T03:14:34.946Z,13.38
2017-05-24T03:15:34.921Z,13.36
2017-05-24T03:16:34.902Z,13.41
2017-05-24T03:17:34.576Z,13.36
2017-05-24T03:18:34.863Z,13.36
2017-05-24T03:19:34.839Z,13.41
2017-05-24T03:20:34.814Z,13.29
2017-05-24T03:21:34.796Z,13.28
2017-05-24T03:22:34.826Z,13.28
2017-05-24T03:23:34.753Z,13.27
2017-05-24T03:24:34.723Z,13.32
2017-05-24T03:25:34.708Z,13.22
2017-05-24T03:26:34.692Z,13.27
2017-05-24T03:27:34.663Z,13.24
2017-05-24T03:28:34.338Z,13.29
2017-05-24T03:29:34.623Z,13.24
2017-05-24T03:30:34.604Z,13.24
2017-05-24T03:31:34.576Z,13.25
2017-05-24T03:32:34.594Z,13.21
2017-05-24T03:33:34.540Z,13.25
2017-05-24T03:34:34.510Z,13.24
2017-05-24T03:35:34.489Z,13.19
2017-05-24T03:36:34.526Z,13.22
2017-05-24T03:37:34.451Z,13.24
2017-05-24T03:38:34.426Z,13.22
2017-05-24T03:39:34.409Z,13.13
2017-05-24T03:40:34.384Z,13.17
2017-05-24T03:41:34.364Z,13.17
2017-05-24T03:42:34.341Z,13.28
2017-05-24T03:43:34.324Z,13.14
2017-05-24T03:44:34.305Z,13.09
2017-05-24T03:45:34.279Z,13.03
2017-05-24T03:46:34.258Z,13.07
2017-05-24T03:47:34.236Z,12.96
2017-05-24T03:48:34.212Z,12.88
2017-05-24T03:49:34.187Z,12.88
2017-05-24T03:50:34.424Z,12.88
2017-05-24T03:51:34.153Z,12.89
2017-05-24T03:52:34.130Z,12.96
2017-05-24T03:53:34.108Z,13.01
2017-05-24T03:54:34.091Z,13.04
2017-05-24T03:55:34.064Z,13.04
2017-05-24T03:56:34.038Z,13.03
2017-05-24T03:57:34.022Z,13.1
2017-05-24T03:58:33.695Z,13.03
2017-05-24T03:59:33.976Z,13.01
2017-05-24T04:00:33.657Z,13.07
2017-05-24T04:01:33.970Z,13.14
2017-05-24T04:02:33.909Z,13.1
2017-05-24T04:03:33.894Z,13.12
2017-05-24T04:04:33.878Z,13.09
2017-05-24T04:05:33.846Z,13.13
2017-05-24T04:06:33.834Z,13.21
2017-05-24T04:07:33.815Z,13.21
2017-05-24T04:08:33.785Z,13.16
2017-05-24T04:09:33.766Z,13.21
2017-05-24T04:10:33.739Z,13.19
2017-05-24T04:11:33.718Z,13.17
2017-05-24T04:12:33.701Z,13.13
2017-05-24T04:13:33.677Z,13.21
2017-05-24T04:14:33.670Z,13.24
2017-05-24T04:15:33.629Z,13.28
2017-05-24T04:16:33.629Z,13.27
2017-05-24T04:17:33.608Z,13.27
2017-05-24T04:18:33.575Z,13.24
2017-05-24T04:19:33.560Z,13.39
2017-05-24T04:20:33.536Z,13.35
2017-05-24T04:21:33.513Z,13.27
2017-05-24T04:22:33.486Z,13.29
2017-05-24T04:23:33.479Z,13.32
2017-05-24T04:24:33.457Z,13.36
2017-05-24T04:25:33.424Z,13.51
2017-05-24T04:26:33.395Z,13.51
2017-05-24T04:27:33.376Z,13.54
2017-05-24T04:28:33.359Z,13.47
2017-05-24T04:29:33.338Z,13.51
2017-05-24T04:30:33.319Z,13.44
2017-05-24T04:31:33.289Z,13.29
2017-05-24T04:32:33.270Z,13.28
2017-05-24T04:33:33.257Z,13.39
2017-05-24T04:34:33.233Z,13.44
2017-05-24T04:35:33.220Z,13.38
2017-05-24T04:36:33.193Z,13.43
2017-05-24T04:37:33.170Z,13.43
2017-05-24T04:38:33.145Z,13.51
2017-05-24T04:39:33.128Z,13.5
2017-05-24T04:40:33.108Z,13.47
2017-05-24T04:41:33.081Z,13.47
2017-05-24T04:42:33.062Z,13.47
2017-05-24T04:43:33.042Z,13.48
2017-05-24T04:44:33.018Z,13.54
2017-05-24T04:45:32.992Z,13.62
2017-05-24T04:46:32.979Z,13.73
2017-05-24T04:47:32.958Z,13.73
2017-05-24T04:48:32.929Z,13.76
2017-05-24T04:49:32.920Z,13.73
2017-05-24T04:50:32.897Z,13.81
2017-05-24T04:51:32.870Z,13.81
2017-05-24T04:52:32.851Z,13.84
2017-05-24T04:53:32.528Z,13.93
2017-05-24T04:54:32.810Z,13.91
2017-05-24T04:55:32.790Z,13.96
2017-05-24T04:56:32.460Z,14.06
2017-05-24T04:57:32.743Z,14.05
2017-05-24T04:58:32.719Z,14.04
2017-05-24T04:59:32.700Z,14.01
2017-05-24T05:00:32.681Z,14.16
2017-05-24T05:01:32.359Z,14.11
2017-05-24T05:02:32.650Z,14.11
2017-05-24T05:03:32.623Z,14.09
2017-05-24T05:04:32.597Z,14.19
2017-05-24T05:05:32.576Z,14.24
2017-05-24T05:06:32.552Z,14.16
2017-05-24T05:07:32.535Z,14.21
2017-05-24T05:08:32.521Z,14.21
2017-05-24T05:09:32.492Z,14.24
2017-05-24T05:10:32.474Z,14.24
2017-05-24T05:11:32.701Z,14.27
2017-05-24T05:12:32.434Z,14.42
2017-05-24T05:13:32.414Z,14.41
2017-05-24T05:14:32.399Z,14.52
2017-05-24T05:15:32.370Z,14.54
2017-05-24T05:16:32.050Z,14.6
2017-05-24T05:17:32.346Z,14.71
2017-05-24T05:18:32.322Z,14.86
2017-05-24T05:19:32.287Z,14.8
2017-05-24T05:20:32.269Z,14.72
2017-05-24T05:21:32.246Z,14.74
2017-05-24T05:22:32.224Z,14.72
2017-05-24T05:23:32.206Z,14.69
2017-05-24T05:24:32.189Z,14.87
2017-05-24T05:25:32.164Z,14.86
2017-05-24T05:26:32.142Z,14.98
2017-05-24T05:27:32.135Z,14.97
2017-05-24T05:28:32.113Z,15.18
2017-05-24T05:29:32.084Z,15.27
2017-05-24T05:30:32.061Z,15.38
2017-05-24T05:31:32.041Z,15.59
2017-05-24T05:32:32.029Z,15.78
2017-05-24T05:33:32.008Z,15.99
2017-05-24T05:34:31.981Z,16.18
2017-05-24T05:35:31.713Z,16.17
2017-05-24T05:36:31.946Z,16.29
2017-05-24T05:37:31.928Z,16.5
2017-05-24T05:38:31.903Z,16.69
2017-05-24T05:39:31.885Z,16.82
2017-05-24T05:40:31.859Z,16.66
2017-05-24T05:41:31.844Z,16.66
2017-05-24T05:42:31.827Z,16.5
2017-05-24T05:43:31.805Z,16.6
2017-05-24T05:44:31.791Z,16.84
2017-05-24T05:45:31.772Z,17.12
2017-05-24T05:46:31.752Z,17.43
2017-05-24T05:47:31.434Z,17.71
2017-05-24T05:48:31.703Z,17.96
2017-05-24T05:49:31.695Z,17.95
2017-05-24T05:50:31.677Z,18.21
2017-05-24T05:51:31.663Z,18.32
2017-05-24T05:52:31.640Z,18.51
2017-05-24T05:53:31.618Z,18.42
2017-05-24T05:54:31.605Z,18.19
2017-05-24T05:55:31.598Z,17.96
2017-05-24T05:56:31.567Z,17.79
2017-05-24T05:57:31.259Z,17.6
2017-05-24T05:58:31.551Z,17.73
2017-05-24T05:59:31.521Z,17.94
2017-05-24T06:00:31.522Z,18.19
2017-05-24T06:01:31.472Z,18.39
2017-05-24T06:02:31.457Z,18.62
2017-05-24T06:03:31.447Z,18.99
2017-05-24T06:04:31.425Z,19.24
2017-05-24T06:05:31.407Z,19.2
2017-05-24T06:06:31.388Z,19.24
2017-05-24T06:07:31.377Z,19.23
2017-05-24T06:08:31.357Z,19.62
2017-05-24T06:09:31.348Z,19.82
2017-05-24T06:10:31.320Z,20.07
2017-05-24T06:11:31.323Z,20.44
2017-05-24T06:12:31.293Z,20.75
2017-05-24T06:13:31.283Z,20.82
2017-05-24T06:14:31.260Z,21.09
2017-05-24T06:15:31.251Z,21.18
2017-05-24T06:16:31.231Z,21.03
2017-05-24T06:17:31.217Z,20.85
2017-05-24T06:18:31.207Z,21.01
2017-05-24T06:19:31.189Z,21.22
2017-05-24T06:20:30.872Z,21.43
2017-05-24T06:21:31.169Z,21.52
2017-05-24T06:22:31.144Z,21.51
2017-05-24T06:23:31.123Z,21.43
2017-05-24T06:24:30.808Z,21.16
2017-05-24T06:25:30.789Z,21.08
2017-05-24T06:26:31.068Z,21.05
2017-05-24T06:27:31.064Z,20.83
2017-05-24T06:28:31.056Z,20.48
2017-05-24T06:29:31.046Z,20.2
2017-05-24T06:30:31.087Z,19.83
2017-05-24T06:31:31.002Z,19.57
2017-05-24T06:32:30.996Z,19.24
2017-05-24T06:33:30.975Z,18.97
2017-05-24T06:34:30.662Z,18.62
2017-05-24T06:35:30.946Z,18.44
2017-05-24T06:36:30.929Z,18.32
2017-05-24T06:37:30.920Z,18.1
2017-05-24T06:38:30.589Z,17.96
2017-05-24T06:39:30.890Z,17.92
2017-05-24T06:40:30.878Z,17.89
2017-05-24T06:41:30.845Z,17.81
2017-05-24T06:42:30.826Z,17.68
2017-05-24T06:43:30.813Z,17.63
2017-05-24T06:44:30.807Z,17.57
2017-05-24T06:45:30.783Z,17.57
2017-05-24T06:46:30.757Z,17.4
2017-05-24T06:47:30.734Z,17.43
2017-05-24T06:48:30.719Z,17.33
2017-05-24T06:49:30.714Z,17.33
2017-05-24T06:50:30.685Z,17.32
2017-05-24T06:51:30.656Z,17.22
2017-05-24T06:52:30.644Z,17.2
2017-05-24T06:53:30.625Z,17.21
2017-05-24T06:54:30.604Z,17.14
2017-05-24T06:55:30.620Z,17.17
2017-05-24T06:56:30.569Z,17.1
2017-05-24T06:57:30.554Z,17.03
2017-05-24T06:58:30.543Z,17.09
2017-05-24T06:59:30.515Z,17.12
2017-05-24T07:00:30.188Z,17.14
2017-05-24T07:01:30.489Z,17.1
2017-05-24T07:02:30.510Z,17.09
2017-05-24T07:03:30.439Z,17.12
2017-05-24T07:04:30.424Z,17.28
2017-05-24T07:05:30.394Z,17.28
2017-05-24T07:06:30.380Z,17.33
2017-05-24T07:07:30.375Z,17.42
2017-05-24T07:08:30.347Z,17.43
2017-05-24T07:09:30.027Z,17.53
2017-05-24T07:10:30.303Z,17.54
2017-05-24T07:11:29.991Z,17.57
2017-05-24T07:12:30.264Z,17.57
2017-05-24T07:13:30.250Z,17.55
2017-05-24T07:14:30.227Z,17.62
2017-05-24T07:15:30.212Z,17.66
2017-05-24T07:16:29.897Z,17.68
2017-05-24T07:17:30.181Z,17.45
2017-05-24T07:18:30.148Z,17.58
2017-05-24T07:19:30.138Z,17.54
2017-05-24T07:20:30.117Z,17.58
2017-05-24T07:21:30.099Z,17.47
2017-05-24T07:22:30.080Z,17.42
2017-05-24T07:23:30.075Z,17.32
2017-05-24T07:24:30.042Z,17.4
2017-05-24T07:25:30.076Z,17.32
2017-05-24T07:26:30.000Z,17.3
2017-05-24T07:27:29.981Z,17.3
2017-05-24T07:28:29.961Z,17.3
2017-05-24T07:29:29.940Z,17.3
2017-05-24T07:30:29.926Z,17.3
2017-05-24T07:31:29.909Z,17.33
2017-05-24T07:32:29.884Z,17.24
2017-05-24T07:33:29.869Z,17.24
2017-05-24T07:34:29.852Z,17.22
2017-05-24T07:35:29.830Z,17.21
2017-05-24T07:36:29.809Z,17.25
2017-05-24T07:37:29.789Z,17.24
2017-05-24T07:38:29.784Z,17.09
2017-05-24T07:39:29.761Z,17.12
2017-05-24T07:40:29.729Z,17.1
2017-05-24T07:41:29.716Z,17.2
2017-05-24T07:42:29.698Z,17.32
2017-05-24T07:43:29.677Z,17.32
2017-05-24T07:44:29.667Z,17.43
2017-05-24T07:45:29.637Z,17.54
2017-05-24T07:46:29.620Z,17.71
2017-05-24T07:47:29.597Z,17.98
2017-05-24T07:48:29.577Z,18.16
2017-05-24T07:49:29.562Z,18.28
2017-05-24T07:50:29.550Z,18.28
2017-05-24T07:51:29.519Z,18.25
2017-05-24T07:52:29.509Z,18.38
2017-05-24T07:53:29.490Z,18.32
2017-05-24T07:54:29.476Z,18.54
2017-05-24T07:55:29.457Z,18.6
2017-05-24T07:56:29.434Z,18.99
2017-05-24T07:57:29.417Z,19.02
2017-05-24T07:58:29.099Z,19.06
2017-05-24T07:59:29.378Z,19.1
2017-05-24T08:00:29.378Z,19.1
2017-05-24T08:01:29.344Z,19.1
2017-05-24T08:02:29.405Z,19.17
2017-05-24T08:03:29.310Z,19.24
2017-05-24T08:04:29.305Z,19.24
2017-05-24T08:05:29.272Z,19.28
2017-05-24T08:06:29.255Z,19.23
2017-05-24T08:07:29.239Z,19.28
2017-05-24T08:08:29.227Z,19.24
2017-05-24T08:09:29.207Z,18.93
2017-05-24T08:10:29.189Z,18.75
2017-05-24T08:11:29.174Z,18.65
2017-05-24T08:12:29.154Z,18.65
2017-05-24T08:13:29.133Z,18.6
2017-05-24T08:14:29.121Z,18.62
2017-05-24T08:15:29.105Z,18.6
2017-05-24T08:16:29.085Z,18.62
2017-05-24T08:17:29.060Z,18.82
2017-05-24T08:18:28.748Z,19.16
2017-05-24T08:19:29.026Z,19.24
2017-05-24T08:20:29.014Z,19.13
2017-05-24T08:21:29.000Z,19.15
2017-05-24T08:22:28.978Z,19.25
2017-05-24T08:23:28.958Z,19.57
2017-05-24T08:24:28.942Z,19.82
2017-05-24T08:25:28.929Z,19.85
2017-05-24T08:26:28.908Z,19.82
2017-05-24T08:27:28.888Z,19.97
2017-05-24T08:28:28.877Z,19.95
2017-05-24T08:29:28.861Z,19.97
2017-05-24T08:30:28.841Z,19.94
2017-05-24T08:31:28.821Z,19.95
2017-05-24T08:32:28.804Z,19.98
2017-05-24T08:33:28.493Z,20
2017-05-24T08:34:28.774Z,20.04
2017-05-24T08:35:28.762Z,20.19
2017-05-24T08:36:28.744Z,20.17
2017-05-24T08:37:28.733Z,20.22
2017-05-24T08:38:28.702Z,20.19
2017-05-24T08:39:28.697Z,20.16
2017-05-24T08:40:28.691Z,20.22
2017-05-24T08:41:28.657Z,20.27
2017-05-24T08:42:28.641Z,20.23
2017-05-24T08:43:28.627Z,20.19
2017-05-24T08:44:28.614Z,19.95
2017-05-24T08:45:28.595Z,19.94
2017-05-24T08:46:28.573Z,19.95
2017-05-24T08:47:28.554Z,19.8
2017-05-24T08:48:28.541Z,19.79
2017-05-24T08:49:28.530Z,19.68
2017-05-24T08:50:28.504Z,19.64
2017-05-24T08:51:28.498Z,19.65
2017-05-24T08:52:28.477Z,19.61
2017-05-24T08:53:28.456Z,19.61
2017-05-24T08:54:28.436Z,19.55
2017-05-24T08:55:28.424Z,19.52
2017-05-24T08:56:28.406Z,19.43
2017-05-24T08:57:28.395Z,19.25
2017-05-24T08:58:28.365Z,19.17
2017-05-24T08:59:28.352Z,19.17
2017-05-24T09:00:28.336Z,19.15
2017-05-24T09:01:28.325Z,19.2
2017-05-24T09:02:28.290Z,19.15
2017-05-24T09:03:28.286Z,18.99
2017-05-24T09:04:28.275Z,19.06
2017-05-24T09:05:28.309Z,19.13
2017-05-24T09:06:28.228Z,19.17
2017-05-24T09:07:28.218Z,19.16
2017-05-24T09:08:28.196Z,19.4
2017-05-24T09:09:28.175Z,19.53
2017-05-24T09:10:28.155Z,19.6
2017-05-24T09:11:28.145Z,19.68
2017-05-24T09:12:28.127Z,19.76
2017-05-24T09:13:27.815Z,19.85
2017-05-24T09:14:28.093Z,19.8
2017-05-24T09:15:28.079Z,19.7
2017-05-24T09:16:27.751Z,19.62
2017-05-24T09:17:28.036Z,19.85
2017-05-24T09:18:27.718Z,20.13
2017-05-24T09:19:28.005Z,20.51
2017-05-24T09:20:27.686Z,20.76
2017-05-24T09:21:27.672Z,21
2017-05-24T09:22:27.956Z,20.96
2017-05-24T09:23:27.635Z,21.01
2017-05-24T09:24:27.929Z,21.18
2017-05-24T09:25:27.920Z,21.13
2017-05-24T09:26:27.889Z,21.26
2017-05-24T09:27:27.880Z,21.42
2017-05-24T09:28:27.856Z,21.49
2017-05-24T09:29:27.858Z,21.55
2017-05-24T09:30:27.833Z,21.51
2017-05-24T09:31:27.815Z,21.59
2017-05-24T09:32:27.496Z,21.73
2017-05-24T09:33:27.484Z,21.56
2017-05-24T09:34:27.779Z,21.55
2017-05-24T09:35:27.744Z,21.51
2017-05-24T09:36:27.759Z,21.53
2017-05-24T09:37:27.730Z,21.58
2017-05-24T09:38:27.706Z,21.61
2017-05-24T09:39:27.693Z,21.56
2017-05-24T09:40:27.670Z,21.4
2017-05-24T09:41:27.657Z,21.24
2017-05-24T09:42:27.646Z,21.05
2017-05-24T09:43:27.635Z,20.97
2017-05-24T09:44:27.615Z,20.88
2017-05-24T09:45:27.300Z,20.61
2017-05-24T09:46:27.579Z,20.61
2017-05-24T09:47:27.579Z,20.51
2017-05-24T09:48:27.548Z,20.5
2017-05-24T09:49:27.541Z,20.54
2017-05-24T09:50:27.515Z,20.56
2017-05-24T09:51:27.503Z,20.5
2017-05-24T09:52:27.492Z,20.6
2017-05-24T09:53:27.474Z,20.68
2017-05-24T09:54:27.459Z,20.78
2017-05-24T09:55:27.434Z,20.87
2017-05-24T09:56:27.427Z,20.83
2017-05-24T09:57:27.487Z,20.79
2017-05-24T09:58:27.094Z,20.87
2017-05-24T09:59:27.071Z,20.93
2017-05-24T10:00:27.360Z,21.06
2017-05-24T10:01:27.390Z,21.11
2017-05-24T10:02:27.321Z,21.22
2017-05-24T10:03:27.311Z,21.58
2017-05-24T10:04:27.297Z,21.53
2017-05-24T10:05:27.282Z,21.49
2017-05-24T10:06:27.264Z,21.58
2017-05-24T10:07:27.243Z,21.71
2017-05-24T10:08:27.238Z,21.81
2017-05-24T10:09:27.215Z,22.08
2017-05-24T10:10:27.267Z,22.01
2017-05-24T10:11:27.188Z,21.86
2017-05-24T10:12:27.161Z,21.61
2017-05-24T10:13:27.147Z,21.37
2017-05-24T10:14:26.838Z,21.28
2017-05-24T10:15:26.521Z,21.3
2017-05-24T10:16:27.102Z,21.24
2017-05-24T10:17:27.109Z,21.21
2017-05-24T10:18:27.088Z,21.09
2017-05-24T10:19:27.063Z,21.09
2017-05-24T10:20:27.045Z,21.19
2017-05-24T10:21:27.028Z,21.19
2017-05-24T10:22:27.012Z,21.24
2017-05-24T10:23:26.997Z,21.27
2017-05-24T10:24:26.982Z,21.45
2017-05-24T10:25:26.664Z,21.43
2017-05-24T10:26:26.947Z,21.37
2017-05-24T10:27:26.938Z,21.26
2017-05-24T10:28:26.919Z,21.22
2017-05-24T10:29:26.906Z,21.22
2017-05-24T10:30:26.905Z,21.37
2017-05-24T10:31:26.866Z,21.4
2017-05-24T10:32:26.846Z,21.59
2017-05-24T10:33:26.847Z,21.86
2017-05-24T10:34:26.818Z,22.14
2017-05-24T10:35:26.811Z,22.35
2017-05-24T10:36:26.783Z,22.23
2017-05-24T10:37:26.776Z,22.27
2017-05-24T10:38:26.775Z,22.19
2017-05-24T10:39:26.744Z,22.12
2017-05-24T10:40:26.730Z,22.17
2017-05-24T10:41:26.418Z,22.19
2017-05-24T10:42:26.693Z,22.24
2017-05-24T10:43:26.984Z,22.45
2017-05-24T10:44:26.369Z,22.67
2017-05-24T10:45:26.648Z,22.69
2017-05-24T10:46:26.643Z,22.67
2017-05-24T10:47:26.621Z,22.72
2017-05-24T10:48:26.308Z,22.66
2017-05-24T10:49:26.588Z,22.69
2017-05-24T10:50:26.276Z,22.66
2017-05-24T10:51:26.576Z,22.59
2017-05-24T10:52:26.549Z,22.61
2017-05-24T10:53:26.535Z,22.63
2017-05-24T10:54:26.522Z,22.72
2017-05-24T10:55:26.200Z,22.75
2017-05-24T10:56:26.550Z,22.6
2017-05-24T10:57:26.482Z,22.6
2017-05-24T10:58:26.469Z,22.64
2017-05-24T10:59:26.461Z,22.76
2017-05-24T11:00:26.438Z,22.85
2017-05-24T11:01:26.123Z,22.78
2017-05-24T11:02:26.412Z,22.64
2017-05-24T11:03:26.403Z,22.51
2017-05-24T11:04:26.384Z,22.59
2017-05-24T11:05:26.616Z,22.78
2017-05-24T11:06:26.354Z,23.04
2017-05-24T11:07:26.344Z,23.16
2017-05-24T11:08:26.369Z,23.42
2017-05-24T11:09:26.011Z,23.6
2017-05-24T11:10:26.303Z,23.71
2017-05-24T11:11:26.285Z,23.86
2017-05-24T11:12:25.671Z,23.68
2017-05-24T11:13:26.277Z,23.67
2017-05-24T11:14:26.259Z,23.63
2017-05-24T11:15:26.231Z,23.69
2017-05-24T11:16:26.228Z,23.64
2017-05-24T11:17:26.209Z,23.5
2017-05-24T11:18:26.206Z,23.39
2017-05-24T11:19:26.180Z,23.21
2017-05-24T11:20:26.166Z,23.09
2017-05-24T11:21:26.160Z,22.91
2017-05-24T11:22:26.156Z,22.88
2017-05-24T11:23:26.131Z,22.81
2017-05-24T11:24:26.126Z,22.75
2017-05-24T11:25:26.349Z,22.78
2017-05-24T11:26:26.090Z,22.74
2017-05-24T11:27:26.068Z,22.57
2017-05-24T11:28:26.055Z,22.54
2017-05-24T11:29:26.044Z,22.51
2017-05-24T11:30:26.027Z,22.39
2017-05-24T11:31:26.015Z,22.2
2017-05-24T11:32:25.997Z,22.14
2017-05-24T11:33:26.288Z,22.14
2017-05-24T11:34:25.970Z,22.06
2017-05-24T11:35:25.958Z,22.2
2017-05-24T11:36:25.944Z,22.27
2017-05-24T11:37:25.924Z,22.35
2017-05-24T11:38:25.924Z,22.59
2017-05-24T11:39:25.892Z,22.49
2017-05-24T11:40:25.893Z,22.45
2017-05-24T11:41:25.875Z,22.57
2017-05-24T11:42:25.848Z,22.56
2017-05-24T11:43:25.838Z,22.48
2017-05-24T11:44:25.824Z,22.59
2017-05-24T11:45:25.804Z,22.52
2017-05-24T11:46:25.796Z,22.6
2017-05-24T11:47:25.783Z,22.63
2017-05-24T11:48:25.756Z,22.79
2017-05-24T11:49:25.752Z,22.89
2017-05-24T11:50:25.731Z,22.86
2017-05-24T11:51:25.728Z,23.03
2017-05-24T11:52:25.394Z,22.76
2017-05-24T11:53:25.681Z,22.63
2017-05-24T11:54:25.661Z,22.57
2017-05-24T11:55:25.645Z,22.46
2017-05-24T11:56:25.635Z,22.54
2017-05-24T11:57:25.617Z,22.31
2017-05-24T11:58:25.607Z,22.29
2017-05-24T11:59:25.587Z,22.24
2017-05-24T12:00:25.567Z,22.21
2017-05-24T12:01:25.557Z,22.15
2017-05-24T12:02:25.545Z,22.31
2017-05-24T12:03:25.528Z,22.45
2017-05-24T12:04:25.511Z,22.48
2017-05-24T12:05:25.491Z,22.49
2017-05-24T12:06:25.482Z,22.57
2017-05-24T12:07:25.453Z,22.6
2017-05-24T12:08:25.455Z,22.61
2017-05-24T12:09:25.430Z,22.46
2017-05-24T12:10:25.403Z,22.45
2017-05-24T12:11:25.403Z,22.52
2017-05-24T12:12:25.382Z,22.54
2017-05-24T12:13:25.366Z,22.33
2017-05-24T12:14:25.353Z,22.36
2017-05-24T12:15:25.327Z,22.46
2017-05-24T12:16:25.320Z,22.51
2017-05-24T12:17:25.001Z,22.48
2017-05-24T12:18:25.304Z,22.45
2017-05-24T12:19:25.275Z,22.59
2017-05-24T12:20:25.247Z,22.64
2017-05-24T12:21:25.232Z,22.85
2017-05-24T12:22:25.231Z,22.81
2017-05-24T12:23:25.209Z,22.89
2017-05-24T12:24:25.205Z,22.91
2017-05-24T12:25:25.174Z,22.99
2017-05-24T12:26:25.164Z,22.97
2017-05-24T12:27:25.140Z,23.16
2017-05-24T12:28:25.124Z,23.03
2017-05-24T12:29:25.106Z,23.04
2017-05-24T12:30:25.102Z,23.03
2017-05-24T12:31:25.130Z,22.99
2017-05-24T12:32:25.060Z,22.78
2017-05-24T12:33:25.052Z,22.66
2017-05-24T12:34:24.729Z,22.57
2017-05-24T12:35:25.020Z,22.63
2017-05-24T12:36:25.001Z,22.54
2017-05-24T12:37:24.984Z,22.31
2017-05-24T12:38:25.039Z,22.17
2017-05-24T12:39:24.947Z,22.15
2017-05-24T12:40:24.928Z,22.15
2017-05-24T12:41:24.614Z,22.14
2017-05-24T12:42:24.902Z,22.15
2017-05-24T12:43:24.598Z,22.14
2017-05-24T12:44:24.874Z,21.94
2017-05-24T12:45:24.861Z,21.85
2017-05-24T12:46:24.834Z,21.85
2017-05-24T12:47:24.824Z,21.9
2017-05-24T12:48:24.514Z,21.93
2017-05-24T12:49:24.796Z,21.82
2017-05-24T12:50:24.774Z,21.79
2017-05-24T12:51:24.973Z,21.53
2017-05-24T12:52:24.431Z,21.52
2017-05-24T12:53:24.726Z,21.45
2017-05-24T12:54:24.708Z,21.4